Time;durP1;ratioP1;P1;durP2;ratioP2;P2;SDS_P1;SDS_P2;PMS_P1;PMS_P2;Temp;Humidity;BMP_temperature;BMP_pressure;BME280_temperature;BME280_humidity;BME280_pressure;Samples;Min_cycle;Max_cycle;Signal;HPM_P1;HPM_P2
2024/02/17 00:00:10;;;;;;;22.37;10.10;;;;;;;;;;5073612;28;20016;-39
2024/02/17 00:02:35;;;;;;;26.67;10.82;;;;;;;;;;5072820;28;20349;-39
2024/02/17 00:05:01;;;;;;;28.88;10.63;;;;;;;;;;5073495;28;20446;-39
2024/02/17 00:07:26;;;;;;;26.92;10.13;;;;;;;;;;5073430;28;20075;-39
2024/02/17 00:09:52;;;;;;;21.45;9.70;;;;;;;;;;5073749;28;20020;-39
2024/02/17 00:12:17;;;;;;;24.80;10.15;;;;;;;;;;5073383;28;20012;-39
2024/02/17 00:14:42;;;;;;;23.67;10.18;;;;;;;;;;5073697;28;20020;-39
2024/02/17 00:17:07;;;;;;;21.23;10.02;;;;;;;;;;5073367;28;20383;-39
2024/02/17 00:19:33;;;;;;;25.17;10.30;;;;;;;;;;5072053;28;20020;-39
2024/02/17 00:21:58;;;;;;;20.20;9.83;;;;;;;;;;5073353;28;20505;-39
2024/02/17 00:24:24;;;;;;;24.90;9.70;;;;;;;;;;5073473;28;20315;-39
2024/02/17 00:26:49;;;;;;;22.08;10.00;;;;;;;;;;5073613;28;20017;-39
2024/02/17 00:29:18;;;;;;;28.48;10.20;;;;;;;;;;5073580;28;20012;-39
2024/02/17 00:31:43;;;;;;;23.30;9.07;;;;;;;;;;5073188;28;20103;-39
2024/02/17 00:34:09;;;;;;;22.90;9.23;;;;;;;;;;5073272;28;20065;-39
2024/02/17 00:36:34;;;;;;;25.90;8.98;;;;;;;;;;5073149;28;20021;-39
2024/02/17 00:38:59;;;;;;;25.10;9.43;;;;;;;;;;5073152;28;20031;-39
2024/02/17 00:41:24;;;;;;;20.95;8.88;;;;;;;;;;5073706;28;20316;-39
2024/02/17 00:43:49;;;;;;;19.65;8.75;;;;;;;;;;5073312;28;20028;-38
2024/02/17 00:46:15;;;;;;;19.87;9.23;;;;;;;;;;5073379;28;20017;-39
2024/02/17 00:48:40;;;;;;;25.63;10.05;;;;;;;;;;5073645;28;20313;-39
2024/02/17 00:51:05;;;;;;;17.00;8.57;;;;;;;;;;5072996;28;20451;-38
2024/02/17 00:53:30;;;;;;;24.23;8.63;;;;;;;;;;5073063;28;20020;-39
2024/02/17 00:55:56;;;;;;;20.45;9.27;;;;;;;;;;5073230;28;20265;-39
2024/02/17 00:58:21;;;;;;;21.05;8.40;;;;;;;;;;5072918;28;20470;-39
2024/02/17 01:00:46;;;;;;;24.80;8.67;;;;;;;;;;5073534;28;20063;-39
2024/02/17 01:03:12;;;;;;;18.60;8.23;;;;;;;;;;5076587;28;20746;-39
2024/02/17 01:05:38;;;;;;;23.20;9.07;;;;;;;;;;5076729;28;20040;-39
2024/02/17 01:08:04;;;;;;;17.20;8.38;;;;;;;;;;5076588;28;20044;-39
2024/02/17 01:10:29;;;;;;;21.05;8.63;;;;;;;;;;5076635;28;20016;-41
2024/02/17 01:12:55;;;;;;;21.48;8.00;;;;;;;;;;5076544;28;20431;-39
2024/02/17 01:15:20;;;;;;;21.37;8.50;;;;;;;;;;5076568;28;20091;-40
2024/02/17 01:17:45;;;;;;;17.70;8.60;;;;;;;;;;5076785;28;20253;-39
2024/02/17 01:20:10;;;;;;;23.23;8.10;;;;;;;;;;5077514;28;20017;-39
2024/02/17 01:22:36;;;;;;;22.33;8.00;;;;;;;;;;5075211;28;20270;-39
2024/02/17 01:25:01;;;;;;;19.47;8.40;;;;;;;;;;5076887;28;20022;-39
2024/02/17 01:27:26;;;;;;;22.10;8.43;;;;;;;;;;5076960;28;20278;-39
2024/02/17 01:29:51;;;;;;;17.53;8.23;;;;;;;;;;5076336;28;20364;-39
2024/02/17 01:32:16;;;;;;;15.52;7.45;;;;;;;;;;5076211;28;20247;-39
2024/02/17 01:34:41;;;;;;;18.53;8.57;;;;;;;;;;5076473;28;20111;-39
2024/02/17 01:37:07;;;;;;;19.58;8.35;;;;;;;;;;5076401;28;20270;-39
2024/02/17 01:39:32;;;;;;;15.98;7.43;;;;;;;;;;5076369;28;20023;-38
2024/02/17 01:41:57;;;;;;;14.93;7.23;;;;;;;;;;5076066;28;20396;-39
2024/02/17 01:44:22;;;;;;;21.03;7.70;;;;;;;;;;5076526;28;20285;-39
2024/02/17 01:46:50;;;;;;;14.65;7.57;;;;;;;;;;5076625;28;20251;-39
2024/02/17 01:49:15;;;;;;;14.93;6.68;;;;;;;;;;5075958;28;20062;-38
2024/02/17 01:51:40;;;;;;;16.48;7.25;;;;;;;;;;5076190;28;20020;-39
2024/02/17 01:54:06;;;;;;;18.92;7.38;;;;;;;;;;5076416;28;20024;-39
2024/02/17 01:56:32;;;;;;;16.77;7.00;;;;;;;;;;5075848;28;20474;-38
2024/02/17 01:58:57;;;;;;;16.13;7.22;;;;;;;;;;5075826;28;20025;-39
2024/02/17 02:01:23;;;;;;;18.63;7.22;;;;;;;;;;5076067;28;20027;-39
2024/02/17 02:03:48;;;;;;;15.45;6.45;;;;;;;;;;5075656;28;20013;-39
2024/02/17 02:06:13;;;;;;;18.95;7.65;;;;;;;;;;5075518;28;20070;-38
2024/02/17 02:08:38;;;;;;;16.13;6.63;;;;;;;;;;5075592;28;20040;-38
2024/02/17 02:11:07;;;;;;;15.73;6.80;;;;;;;;;;5075544;28;20017;-39
2024/02/17 02:13:32;;;;;;;17.10;6.40;;;;;;;;;;5074622;28;20020;-39
2024/02/17 02:15:57;;;;;;;16.65;6.70;;;;;;;;;;5075527;28;20031;-38
2024/02/17 02:18:22;;;;;;;16.80;5.97;;;;;;;;;;5075784;28;20093;-39
2024/02/17 02:20:49;;;;;;;15.90;6.15;;;;;;;;;;5075427;28;20048;-39
2024/02/17 02:23:14;;;;;;;16.90;6.32;;;;;;;;;;5075531;28;20505;-39
2024/02/17 02:25:42;;;;;;;12.18;6.22;;;;;;;;;;5075236;28;20059;-38
2024/02/17 02:28:08;;;;;;;13.93;5.90;;;;;;;;;;5075234;28;20028;-38
2024/02/17 02:30:33;;;;;;;13.50;5.55;;;;;;;;;;5075775;28;20099;-38
2024/02/17 02:32:58;;;;;;;16.42;5.60;;;;;;;;;;5075724;28;20021;-38
2024/02/17 02:35:24;;;;;;;14.38;5.95;;;;;;;;;;5075648;28;20016;-38
2024/02/17 02:37:49;;;;;;;13.35;4.90;;;;;;;;;;5075207;28;20111;-38
2024/02/17 02:40:14;;;;;;;14.30;6.40;;;;;;;;;;5074960;28;20118;-38
2024/02/17 02:42:39;;;;;;;12.48;5.20;;;;;;;;;;5075494;28;20251;-38
2024/02/17 02:45:06;;;;;;;12.40;5.30;;;;;;;;;;5074884;28;20402;-38
2024/02/17 02:47:31;;;;;;;14.13;5.18;;;;;;;;;;5074911;28;20251;-38
2024/02/17 02:49:59;;;;;;;15.60;4.82;;;;;;;;;;5074841;28;20027;-38
2024/02/17 02:52:24;;;;;;;16.83;5.28;;;;;;;;;;5074959;28;20017;-38
2024/02/17 02:54:49;;;;;;;12.87;5.30;;;;;;;;;;5074982;28;20024;-38
2024/02/17 02:57:14;;;;;;;13.38;4.57;;;;;;;;;;5074583;28;20259;-38
2024/02/17 02:59:40;;;;;;;13.18;4.93;;;;;;;;;;5075161;28;20028;-38
2024/02/17 03:02:05;;;;;;;9.63;4.50;;;;;;;;;;5073224;28;20424;-38
2024/02/17 03:04:30;;;;;;;8.90;4.25;;;;;;;;;;5074663;28;20123;-38
2024/02/17 03:06:55;;;;;;;10.27;4.00;;;;;;;;;;5074360;28;20116;-38
2024/02/17 03:09:21;;;;;;;13.17;3.67;;;;;;;;;;5074461;28;20243;-38
2024/02/17 03:11:48;;;;;;;10.07;3.95;;;;;;;;;;5074522;28;20308;-39
2024/02/17 03:14:15;;;;;;;8.82;3.78;;;;;;;;;;5074300;28;20054;-38
2024/02/17 03:16:40;;;;;;;11.23;3.78;;;;;;;;;;5074495;28;20406;-38
2024/02/17 03:19:06;;;;;;;9.57;3.63;;;;;;;;;;5074174;28;20027;-38
2024/02/17 03:21:31;;;;;;;9.48;3.65;;;;;;;;;;5074415;28;20266;-38
2024/02/17 03:23:56;;;;;;;11.97;3.70;;;;;;;;;;5074624;28;20406;-38
2024/02/17 03:26:21;;;;;;;8.80;3.50;;;;;;;;;;5074051;28;20251;-38
2024/02/17 03:28:47;;;;;;;7.80;3.07;;;;;;;;;;5074044;28;20283;-38
2024/02/17 03:31:12;;;;;;;11.23;3.45;;;;;;;;;;5074049;28;20824;-38
2024/02/17 03:33:37;;;;;;;10.50;3.80;;;;;;;;;;5074014;28;20025;-38
2024/02/17 03:36:04;;;;;;;9.70;3.73;;;;;;;;;;5074021;28;20035;-37
2024/02/17 03:38:30;;;;;;;12.35;3.50;;;;;;;;;;5074488;28;20275;-38
2024/02/17 03:40:55;;;;;;;10.63;3.65;;;;;;;;;;5073915;28;20395;-37
2024/02/17 03:43:20;;;;;;;9.70;3.37;;;;;;;;;;5074072;28;20470;-37
2024/02/17 03:45:45;;;;;;;11.95;3.33;;;;;;;;;;5074092;28;20254;-38
2024/02/17 03:48:10;;;;;;;8.93;3.73;;;;;;;;;;5074306;28;20013;-38
2024/02/17 03:50:36;;;;;;;10.13;3.20;;;;;;;;;;5074381;28;20300;-37
2024/02/17 03:53:01;;;;;;;13.65;3.60;;;;;;;;;;5073696;28;20330;-38
2024/02/17 03:55:26;;;;;;;15.20;3.70;;;;;;;;;;5074246;28;20025;-38
2024/02/17 03:57:51;;;;;;;13.87;3.60;;;;;;;;;;5074260;28;20246;-38
2024/02/17 04:00:16;;;;;;;11.18;3.88;;;;;;;;;;5073530;28;20345;-38
2024/02/17 04:02:42;;;;;;;8.93;3.78;;;;;;;;;;5074188;28;20020;-38
2024/02/17 04:05:11;;;;;;;8.95;3.90;;;;;;;;;;5073755;28;20024;-38
2024/02/17 04:07:37;;;;;;;12.15;4.35;;;;;;;;;;5073557;28;20554;-38
2024/02/17 04:10:03;;;;;;;12.55;4.18;;;;;;;;;;5073407;28;20052;-38
2024/02/17 04:12:28;;;;;;;15.75;4.57;;;;;;;;;;5072084;28;20055;-38
2024/02/17 04:14:54;;;;;;;7.50;4.10;;;;;;;;;;5073706;28;20023;-38
2024/02/17 04:17:19;;;;;;;10.53;4.03;;;;;;;;;;5073981;28;20020;-38
2024/02/17 04:19:44;;;;;;;8.73;4.05;;;;;;;;;;5073354;28;20255;-43
2024/02/17 04:22:09;;;;;;;14.25;4.85;;;;;;;;;;5073956;28;20021;-37
2024/02/17 04:24:35;;;;;;;13.38;4.95;;;;;;;;;;5073288;28;20052;-38
2024/02/17 04:27:00;;;;;;;11.77;4.43;;;;;;;;;;5073935;28;20086;-38
2024/02/17 04:29:25;;;;;;;10.90;4.53;;;;;;;;;;5073310;28;20024;-38
2024/02/17 04:31:50;;;;;;;10.30;4.70;;;;;;;;;;5073872;28;20009;-38
2024/02/17 04:34:15;;;;;;;9.57;4.83;;;;;;;;;;5073534;28;20029;-38
2024/02/17 04:36:40;;;;;;;13.18;5.05;;;;;;;;;;5074024;28;20311;-38
2024/02/17 04:39:06;;;;;;;14.93;5.27;;;;;;;;;;5077971;28;20066;-38
2024/02/17 04:41:31;;;;;;;13.27;5.38;;;;;;;;;;5077833;28;20247;-38
2024/02/17 04:43:56;;;;;;;11.45;4.60;;;;;;;;;;5077145;28;20483;-38
2024/02/17 04:46:22;;;;;;;13.67;5.57;;;;;;;;;;5077247;28;20023;-38
2024/02/17 04:48:47;;;;;;;15.43;5.43;;;;;;;;;;5077741;28;20254;-39
2024/02/17 04:51:12;;;;;;;18.98;5.53;;;;;;;;;;5077148;28;20326;-39
2024/02/17 04:53:37;;;;;;;12.33;5.13;;;;;;;;;;5077391;28;20056;-39
2024/02/17 04:56:02;;;;;;;13.90;6.03;;;;;;;;;;5077360;28;20316;-38
2024/02/17 04:58:28;;;;;;;14.80;5.80;;;;;;;;;;5077023;28;20246;-39
2024/02/17 05:00:53;;;;;;;12.18;5.72;;;;;;;;;;5076918;28;20017;-39
2024/02/17 05:03:18;;;;;;;12.03;5.80;;;;;;;;;;5077117;28;20024;-39
2024/02/17 05:05:43;;;;;;;14.05;6.38;;;;;;;;;;5076862;28;20275;-38
2024/02/17 05:08:09;;;;;;;14.38;6.28;;;;;;;;;;5076786;28;20145;-39
2024/02/17 05:10:34;;;;;;;14.30;5.72;;;;;;;;;;5076712;28;20044;-39
2024/02/17 05:12:59;;;;;;;17.00;6.07;;;;;;;;;;5076912;28;20025;-39
2024/02/17 05:15:24;;;;;;;16.77;6.00;;;;;;;;;;5076860;28;20380;-39
2024/02/17 05:17:49;;;;;;;23.17;6.40;;;;;;;;;;5076593;28;20251;-39
2024/02/17 05:20:15;;;;;;;16.53;6.57;;;;;;;;;;5077101;28;20258;-39
2024/02/17 05:22:42;;;;;;;18.15;6.25;;;;;;;;;;5076575;28;20259;-41
2024/02/17 05:25:08;;;;;;;14.60;6.18;;;;;;;;;;5076336;28;20020;-39
2024/02/17 05:27:33;;;;;;;17.20;6.07;;;;;;;;;;5076765;28;20020;-39
2024/02/17 05:29:58;;;;;;;14.90;6.13;;;;;;;;;;5076687;28;20052;-39
2024/02/17 05:32:23;;;;;;;12.47;6.00;;;;;;;;;;5076921;28;20250;-39
2024/02/17 05:34:48;;;;;;;14.60;6.80;;;;;;;;;;5076373;28;20247;-38
2024/02/17 05:37:13;;;;;;;16.05;6.32;;;;;;;;;;5076263;28;20379;-39
2024/02/17 05:39:39;;;;;;;16.80;6.70;;;;;;;;;;5076232;28;20162;-39
2024/02/17 05:42:04;;;;;;;17.40;6.77;;;;;;;;;;5076194;28;20497;-39
2024/02/17 05:44:29;;;;;;;15.53;6.40;;;;;;;;;;5076137;28;20286;-39
2024/02/17 05:46:54;;;;;;;15.30;6.90;;;;;;;;;;5076736;28;20259;-39
2024/02/17 05:49:21;;;;;;;20.63;7.13;;;;;;;;;;5074889;28;20255;-39
2024/02/17 05:51:47;;;;;;;15.50;7.07;;;;;;;;;;5075972;28;20024;-39
2024/02/17 05:54:12;;;;;;;17.10;7.05;;;;;;;;;;5075956;28;20024;-39
2024/02/17 05:56:37;;;;;;;18.23;6.90;;;;;;;;;;5075318;28;20021;-39
2024/02/17 05:59:03;;;;;;;14.03;6.90;;;;;;;;;;5076379;28;20752;-39
2024/02/17 06:01:28;;;;;;;18.45;7.38;;;;;;;;;;5076083;28;20690;-39
2024/02/17 06:03:54;;;;;;;19.58;7.47;;;;;;;;;;5075693;28;20100;-39
2024/02/17 06:06:19;;;;;;;15.50;7.23;;;;;;;;;;5076129;28;20013;-39
2024/02/17 06:08:44;;;;;;;20.73;7.33;;;;;;;;;;5076309;28;20294;-39
2024/02/17 06:11:09;;;;;;;21.17;7.90;;;;;;;;;;5075598;28;20725;-38
2024/02/17 06:13:34;;;;;;;19.42;7.25;;;;;;;;;;5076138;28;20258;-38
2024/02/17 06:16:00;;;;;;;17.60;7.53;;;;;;;;;;5075876;28;20044;-38
2024/02/17 06:21:18;;;;;;;19.17;8.02;;;;;;;;;;5076330;28;20123;-46
2024/02/17 06:23:43;;;;;;;18.92;7.57;;;;;;;;;;5075321;28;20024;-38
2024/02/17 06:26:24;;;;;;;17.55;7.60;;;;;;;;;;5075608;28;20020;-38
2024/02/17 06:28:50;;;;;;;18.40;7.82;;;;;;;;;;5075297;28;20015;-39
2024/02/17 06:31:15;;;;;;;21.30;7.75;;;;;;;;;;5075502;28;20112;-39
2024/02/17 06:33:40;;;;;;;19.15;8.18;;;;;;;;;;5075217;28;20420;-39
2024/02/17 06:36:06;;;;;;;21.20;8.20;;;;;;;;;;5075207;28;20047;-39
2024/02/17 06:38:31;;;;;;;18.42;7.20;;;;;;;;;;5075720;28;20329;-39
2024/02/17 06:40:56;;;;;;;20.55;8.35;;;;;;;;;;5075063;28;20025;-39
2024/02/17 06:43:21;;;;;;;17.95;7.75;;;;;;;;;;5075003;28;20321;-39
2024/02/17 06:45:46;;;;;;;21.50;8.20;;;;;;;;;;5075208;28;20024;-39
2024/02/17 06:48:12;;;;;;;19.47;8.70;;;;;;;;;;5075212;28;20397;-39
2024/02/17 06:50:37;;;;;;;14.30;8.55;;;;;;;;;;5073622;28;20307;-48
2024/02/17 06:53:02;;;;;;;15.97;7.90;;;;;;;;;;5075072;28;20469;-39
2024/02/17 06:55:27;;;;;;;21.05;8.70;;;;;;;;;;5073548;28;20258;-38
2024/02/17 06:57:52;;;;;;;23.00;8.33;;;;;;;;;;5074700;28;20074;-38
2024/02/17 07:00:18;;;;;;;22.58;8.02;;;;;;;;;;5074718;28;20270;-38
2024/02/17 07:02:44;;;;;;;18.13;7.95;;;;;;;;;;5074951;28;20012;-38
2024/02/17 07:05:09;;;;;;;19.03;8.43;;;;;;;;;;5074545;28;20112;-38
2024/02/17 07:07:34;;;;;;;19.03;8.47;;;;;;;;;;5074530;28;20293;-38
2024/02/17 07:10:03;;;;;;;19.30;8.43;;;;;;;;;;5074531;28;20776;-38
2024/02/17 07:12:31;;;;;;;26.55;8.85;;;;;;;;;;5074571;28;20020;-38
2024/02/17 07:14:56;;;;;;;23.40;8.52;;;;;;;;;;5074600;28;20074;-39
2024/02/17 07:17:21;;;;;;;23.60;8.40;;;;;;;;;;5074379;28;20024;-39
2024/02/17 07:19:46;;;;;;;19.20;8.10;;;;;;;;;;5074279;28;20285;-39
2024/02/17 07:22:12;;;;;;;21.00;8.50;;;;;;;;;;5074282;28;20259;-39
2024/02/17 07:24:37;;;;;;;20.85;9.20;;;;;;;;;;5074416;28;20847;-40
2024/02/17 07:27:02;;;;;;;19.80;9.27;;;;;;;;;;5074253;28;20052;-39
2024/02/17 07:29:27;;;;;;;22.60;9.07;;;;;;;;;;5074148;28;20253;-39
2024/02/17 07:31:52;;;;;;;18.73;8.37;;;;;;;;;;5074047;28;20023;-39
2024/02/17 07:34:18;;;;;;;16.98;8.32;;;;;;;;;;5074616;28;20250;-39
2024/02/17 07:36:43;;;;;;;22.63;8.70;;;;;;;;;;5074554;28;20090;-38
2024/02/17 07:39:08;;;;;;;18.23;8.40;;;;;;;;;;5072722;28;20621;-39
2024/02/17 07:41:33;;;;;;;19.17;8.50;;;;;;;;;;5073847;28;20471;-39
2024/02/17 07:43:58;;;;;;;22.27;8.60;;;;;;;;;;5073779;28;20389;-39
2024/02/17 07:46:24;;;;;;;22.07;9.60;;;;;;;;;;5073781;28;20283;-39
2024/02/17 07:48:50;;;;;;;17.50;8.85;;;;;;;;;;5073823;28;20259;-39
2024/02/17 07:51:15;;;;;;;20.42;8.63;;;;;;;;;;5074019;28;20065;-39
2024/02/17 07:53:40;;;;;;;20.83;8.90;;;;;;;;;;5074356;28;20032;-39
2024/02/17 07:56:06;;;;;;;19.33;8.75;;;;;;;;;;5073764;28;20756;-39
2024/02/17 07:58:31;;;;;;;18.52;8.55;;;;;;;;;;5073746;28;20040;-39
2024/02/17 08:00:57;;;;;;;20.40;9.32;;;;;;;;;;5073582;28;20443;-39
2024/02/17 08:03:22;;;;;;;20.40;9.30;;;;;;;;;;5073877;28;20032;-39
2024/02/17 08:05:48;;;;;;;19.03;8.70;;;;;;;;;;5073773;28;20099;-39
2024/02/17 08:08:13;;;;;;;20.95;8.85;;;;;;;;;;5073254;28;20285;-38
2024/02/17 08:10:38;;;;;;;23.42;8.73;;;;;;;;;;5073288;28;20017;-37
2024/02/17 08:13:04;;;;;;;22.08;9.57;;;;;;;;;;5073039;28;20021;-38
2024/02/17 08:15:29;;;;;;;16.17;8.38;;;;;;;;;;5073396;28;20013;-38
2024/02/17 08:17:54;;;;;;;24.10;8.63;;;;;;;;;;5073347;28;20094;-38
2024/02/17 08:20:19;;;;;;;20.67;8.37;;;;;;;;;;5073874;28;20025;-38
2024/02/17 08:22:44;;;;;;;16.70;8.98;;;;;;;;;;5073321;28;20665;-38
2024/02/17 08:25:10;;;;;;;20.27;8.57;;;;;;;;;;5073253;28;20062;-38
2024/02/17 08:27:38;;;;;;;16.67;8.63;;;;;;;;;;5073142;28;20311;-38
2024/02/17 08:30:03;;;;;;;19.80;8.27;;;;;;;;;;5073521;28;20450;-38
2024/02/17 08:32:29;;;;;;;21.63;8.63;;;;;;;;;;5073105;28;20062;-38
2024/02/17 08:34:54;;;;;;;16.75;8.18;;;;;;;;;;5073541;28;20103;-38
2024/02/17 08:37:20;;;;;;;18.85;8.98;;;;;;;;;;5073796;28;20060;-38
2024/02/17 08:39:48;;;;;;;20.65;8.18;;;;;;;;;;5073166;28;20046;-38
2024/02/17 08:42:13;;;;;;;20.55;8.18;;;;;;;;;;5073090;28;20110;-38
2024/02/17 08:44:38;;;;;;;24.17;9.03;;;;;;;;;;5073093;28;20527;-39
2024/02/17 08:47:04;;;;;;;18.42;8.63;;;;;;;;;;5073047;28;20251;-38
2024/02/17 08:49:29;;;;;;;23.75;9.02;;;;;;;;;;5073119;28;20031;-39
2024/02/17 08:51:54;;;;;;;23.53;8.27;;;;;;;;;;5073586;28;20020;-38
2024/02/17 08:54:21;;;;;;;22.30;8.40;;;;;;;;;;5072837;28;20263;-39
2024/02/17 08:56:47;;;;;;;19.70;8.32;;;;;;;;;;5071657;28;20263;-39
2024/02/17 08:59:12;;;;;;;21.33;8.50;;;;;;;;;;5072886;28;20383;-39
2024/02/17 09:01:37;;;;;;;21.33;8.70;;;;;;;;;;5072860;28;20255;-39
2024/02/17 09:04:03;;;;;;;20.75;9.02;;;;;;;;;;5072962;28;20119;-39
2024/02/17 09:06:28;;;;;;;17.85;8.65;;;;;;;;;;5072471;28;20017;-39
2024/02/17 09:08:53;;;;;;;19.33;9.00;;;;;;;;;;5072795;28;20522;-38
2024/02/17 09:11:18;;;;;;;27.03;9.53;;;;;;;;;;5073164;28;20258;-39
2024/02/17 09:13:46;;;;;;;22.17;9.32;;;;;;;;;;5072967;28;20255;-39
2024/02/17 09:16:11;;;;;;;20.73;8.98;;;;;;;;;;5072833;28;20028;-37
2024/02/17 09:18:36;;;;;;;23.17;8.97;;;;;;;;;;5072888;28;20021;-37
2024/02/17 09:21:02;;;;;;;21.75;8.77;;;;;;;;;;5072911;28;20263;-38
2024/02/17 09:23:27;;;;;;;20.17;8.70;;;;;;;;;;5074419;28;20016;-39
2024/02/17 09:25:52;;;;;;;18.23;8.30;;;;;;;;;;5074858;28;20020;-38
2024/02/17 09:28:17;;;;;;;21.40;8.20;;;;;;;;;;5075387;28;20263;-38
2024/02/17 09:30:42;;;;;;;75.47;41.63;;;;;;;;;;5076106;28;20316;-38
2024/02/17 09:33:07;;;;;;;25.00;11.90;;;;;;;;;;5076133;28;20255;-43
2024/02/17 09:35:33;;;;;;;22.00;9.10;;;;;;;;;;5076164;28;20353;-38
2024/02/17 09:37:58;;;;;;;19.37;8.00;;;;;;;;;;5075857;28;20255;-38
2024/02/17 09:40:23;;;;;;;20.40;7.90;;;;;;;;;;5074585;28;20290;-38
2024/02/17 09:42:50;;;;;;;20.17;8.47;;;;;;;;;;5075863;28;20112;-38
2024/02/17 09:45:15;;;;;;;18.77;8.32;;;;;;;;;;5075904;28;20271;-38
2024/02/17 09:47:42;;;;;;;17.92;8.48;;;;;;;;;;5075963;28;20019;-38
2024/02/17 09:50:10;;;;;;;17.27;8.20;;;;;;;;;;5076161;28;20013;-38
2024/02/17 09:52:36;;;;;;;15.60;7.68;;;;;;;;;;5076389;28;20020;-38
2024/02/17 09:55:01;;;;;;;16.55;8.23;;;;;;;;;;5076130;28;20035;-38
2024/02/17 09:57:26;;;;;;;17.13;7.88;;;;;;;;;;5075961;28;20019;-38
2024/02/17 09:59:51;;;;;;;18.10;8.07;;;;;;;;;;5075762;28;20059;-38
2024/02/17 10:02:17;;;;;;;18.13;8.27;;;;;;;;;;5076190;28;20257;-39
2024/02/17 10:04:52;;;;;;;18.52;8.45;;;;;;;;;;5075835;28;20274;-39
2024/02/17 10:07:17;;;;;;;15.70;7.65;;;;;;;;;;5075585;28;20517;-38
2024/02/17 10:09:44;;;;;;;17.50;7.40;;;;;;;;;;5075835;28;20030;-39
2024/02/17 10:12:10;;;;;;;17.88;8.00;;;;;;;;;;5075665;28;20257;-38
2024/02/17 10:14:35;;;;;;;16.17;8.07;;;;;;;;;;5075458;28;20073;-39
2024/02/17 10:17:00;;;;;;;18.85;8.70;;;;;;;;;;5075737;28;20024;-38
2024/02/17 10:19:25;;;;;;;17.40;7.90;;;;;;;;;;5075599;28;20023;-39
2024/02/17 10:21:51;;;;;;;21.27;8.17;;;;;;;;;;5075304;28;20098;-38
2024/02/17 10:24:16;;;;;;;22.05;8.40;;;;;;;;;;5075699;28;20356;-39
2024/02/17 10:26:42;;;;;;;17.67;8.60;;;;;;;;;;5075994;28;20019;-38
2024/02/17 10:29:07;;;;;;;19.08;8.50;;;;;;;;;;5075212;28;20287;-38
2024/02/17 10:31:32;;;;;;;17.50;8.27;;;;;;;;;;5075671;28;20028;-38
2024/02/17 10:33:58;;;;;;;16.37;8.43;;;;;;;;;;5074775;28;20039;-38
2024/02/17 10:36:25;;;;;;;17.85;8.88;;;;;;;;;;5075105;28;20024;-38
2024/02/17 10:38:51;;;;;;;17.60;8.43;;;;;;;;;;5074951;28;20126;-38
2024/02/17 10:41:17;;;;;;;17.10;8.27;;;;;;;;;;5075365;28;20028;-38
2024/02/17 10:43:44;;;;;;;19.60;9.05;;;;;;;;;;5074861;28;20032;-38
2024/02/17 10:46:12;;;;;;;17.13;8.80;;;;;;;;;;5075135;28;20048;-38
2024/02/17 10:48:41;;;;;;;19.08;8.20;;;;;;;;;;5074808;28;20019;-38
2024/02/17 10:51:06;;;;;;;19.13;8.80;;;;;;;;;;5074754;28;20024;-38
2024/02/17 10:53:34;;;;;;;18.02;8.52;;;;;;;;;;5074725;28;20027;-38
2024/02/17 10:55:59;;;;;;;14.93;7.75;;;;;;;;;;5075171;28;20020;-38
2024/02/17 10:58:25;;;;;;;21.38;8.45;;;;;;;;;;5074747;28;20015;-38
2024/02/17 11:00:50;;;;;;;17.08;8.25;;;;;;;;;;5075245;28;20016;-39
2024/02/17 11:03:23;;;;;;;15.57;7.65;;;;;;;;;;5074352;28;20021;-43
2024/02/17 11:05:48;;;;;;;;;;;;;;;;;;5075012;28;20028;-39
2024/02/17 11:08:14;;;;;;;17.58;7.75;;;;;;;;;;5074289;28;19916;-38
2024/02/17 11:10:43;;;;;;;22.45;8.52;;;;;;;;;;5074079;28;20074;-38
2024/02/17 11:13:28;;;;;;;16.42;7.72;;;;;;;;;;5074099;28;20029;-38
2024/02/17 11:16:12;;;;;;;17.33;8.25;;;;;;;;;;5074331;28;20046;-38
2024/02/17 11:18:37;;;;;;;;;;;;;;;;;;5074455;28;20027;-38
2024/02/17 11:21:03;;;;;;;15.02;7.70;;;;;;;;;;5073972;28;19908;-38
2024/02/17 11:23:38;;;;;;;18.35;8.13;;;;;;;;;;5073946;28;20025;-38
2024/02/17 11:26:06;;;;;;;20.30;8.18;;;;;;;;;;5074227;28;20036;-38
2024/02/17 11:28:31;;;;;;;16.63;7.40;;;;;;;;;;5073933;28;20024;-40
2024/02/17 11:30:58;;;;;;;17.63;7.53;;;;;;;;;;5073896;28;20528;-38
2024/02/17 11:33:30;;;;;;;17.75;7.80;;;;;;;;;;5074065;28;20077;-38
2024/02/17 11:35:56;;;;;;;19.65;7.93;;;;;;;;;;5073030;28;20016;-38
2024/02/17 11:38:25;;;;;;;16.10;8.30;;;;;;;;;;5073742;28;20044;-38
2024/02/17 11:40:57;;;;;;;16.48;7.93;;;;;;;;;;5074032;28;20059;-38
2024/02/17 11:43:25;;;;;;;17.02;8.30;;;;;;;;;;5074271;28;20020;-38
2024/02/17 11:45:53;;;;;;;17.38;8.10;;;;;;;;;;5073030;28;20090;-38
2024/02/17 11:48:19;;;;;;;20.15;8.38;;;;;;;;;;5073497;28;20379;-38
2024/02/17 11:50:44;;;;;;;15.07;7.85;;;;;;;;;;5072870;28;20013;-38
2024/02/17 11:53:09;;;;;;;18.70;7.90;;;;;;;;;;5071708;28;20021;-38
2024/02/17 11:55:36;;;;;;;18.75;8.90;;;;;;;;;;5072636;28;20414;-38
2024/02/17 11:58:05;;;;;;;15.77;8.15;;;;;;;;;;5072728;28;20020;-37
2024/02/17 12:00:32;;;;;;;17.88;8.43;;;;;;;;;;5073357;28;20107;-37
2024/02/17 12:02:57;;;;;;;19.58;9.70;;;;;;;;;;5073386;28;20127;-37
2024/02/17 12:05:22;;;;;;;18.73;10.55;;;;;;;;;;5073262;28;20111;-37
2024/02/17 12:07:49;;;;;;;19.23;10.50;;;;;;;;;;5073427;28;20045;-41
2024/02/17 12:10:14;;;;;;;15.35;8.90;;;;;;;;;;5073743;28;20420;-38
2024/02/17 12:12:40;;;;;;;20.50;9.47;;;;;;;;;;5073151;28;20055;-38
2024/02/17 12:15:08;;;;;;;22.45;12.95;;;;;;;;;;5073185;28;20262;-38
2024/02/17 12:17:37;;;;;;;14.40;8.60;;;;;;;;;;5073487;28;20025;-38
2024/02/17 12:20:02;;;;;;;20.15;8.85;;;;;;;;;;5073354;28;20024;-37
2024/02/17 12:22:27;;;;;;;20.33;8.20;;;;;;;;;;5073705;28;20146;-37
2024/02/17 12:24:53;;;;;;;15.43;8.40;;;;;;;;;;5073157;28;20024;-37
2024/02/17 12:27:18;;;;;;;19.25;9.10;;;;;;;;;;5073339;28;20027;-38
2024/02/17 12:29:50;;;;;;;16.90;8.45;;;;;;;;;;5073191;28;20371;-38
2024/02/17 12:32:18;;;;;;;16.95;8.90;;;;;;;;;;5073162;28;20095;-38
2024/02/17 12:34:43;;;;;;;18.02;9.00;;;;;;;;;;5073072;28;20028;-38
2024/02/17 12:37:09;;;;;;;19.48;8.73;;;;;;;;;;5072594;28;20024;-38
2024/02/17 12:39:34;;;;;;;15.43;9.43;;;;;;;;;;5072554;28;20043;-37
2024/02/17 12:42:00;;;;;;;23.05;9.00;;;;;;;;;;5073307;28;20012;-38
2024/02/17 12:44:27;;;;;;;24.92;9.48;;;;;;;;;;5072858;28;20115;-38
2024/02/17 12:46:52;;;;;;;19.35;9.65;;;;;;;;;;5073253;28;20074;-38
2024/02/17 12:49:21;;;;;;;18.10;9.82;;;;;;;;;;5072987;28;20013;-38
2024/02/17 12:51:47;;;;;;;23.05;8.73;;;;;;;;;;5072875;28;20017;-38
2024/02/17 12:54:15;;;;;;;17.02;8.93;;;;;;;;;;5072672;28;20540;-38
2024/02/17 12:56:40;;;;;;;19.05;9.30;;;;;;;;;;5072959;28;20025;-39
2024/02/17 12:59:05;;;;;;;19.10;10.18;;;;;;;;;;5075928;28;20024;-37
2024/02/17 13:01:31;;;;;;;21.10;9.73;;;;;;;;;;5076841;28;20024;-37
2024/02/17 13:03:56;;;;;;;18.58;9.63;;;;;;;;;;5077231;28;20029;-37
2024/02/17 13:06:22;;;;;;;19.88;9.95;;;;;;;;;;5077092;28;20024;-38
2024/02/17 13:08:47;;;;;;;20.73;9.48;;;;;;;;;;5077738;28;20489;-38
2024/02/17 13:11:13;;;;;;;19.60;10.52;;;;;;;;;;5077087;28;20016;-40
2024/02/17 13:13:39;;;;;;;23.85;11.15;;;;;;;;;;5076685;28;20046;-37
2024/02/17 13:16:05;;;;;;;21.75;11.10;;;;;;;;;;5075261;28;20041;-38
2024/02/17 13:18:30;;;;;;;23.27;11.00;;;;;;;;;;5076466;28;20387;-38
2024/02/17 13:20:56;;;;;;;16.67;9.95;;;;;;;;;;5076743;28;20032;-38
2024/02/17 13:23:21;;;;;;;18.77;9.43;;;;;;;;;;5076268;28;20013;-38
2024/02/17 13:25:49;;;;;;;16.57;9.77;;;;;;;;;;5076573;28;20015;-38
2024/02/17 13:28:14;;;;;;;18.35;10.23;;;;;;;;;;5076577;28;20710;-39
2024/02/17 13:30:40;;;;;;;17.67;9.43;;;;;;;;;;5076354;28;20023;-39
2024/02/17 13:33:05;;;;;;;18.33;8.50;;;;;;;;;;5076184;28;20282;-38
2024/02/17 13:35:30;;;;;;;15.13;8.87;;;;;;;;;;5076196;28;20017;-38
2024/02/17 13:37:55;;;;;;;23.83;9.87;;;;;;;;;;5076403;28;20051;-38
2024/02/17 13:40:20;;;;;;;19.98;9.38;;;;;;;;;;5075917;28;20285;-38
2024/02/17 13:42:46;;;;;;;18.63;8.90;;;;;;;;;;5076369;28;20025;-41
2024/02/17 13:45:12;;;;;;;15.57;9.07;;;;;;;;;;5076192;28;20095;-38
2024/02/17 13:47:37;;;;;;;18.88;9.55;;;;;;;;;;5075880;28;20020;-38
2024/02/17 13:50:03;;;;;;;17.23;8.47;;;;;;;;;;5076496;28;20021;-39
2024/02/17 13:52:29;;;;;;;15.50;8.55;;;;;;;;;;5075795;28;20722;-38
2024/02/17 13:54:54;;;;;;;21.05;9.10;;;;;;;;;;5075855;28;20058;-47
2024/02/17 13:57:19;;;;;;;14.20;8.00;;;;;;;;;;5076309;28;20023;-38
2024/02/17 13:59:45;;;;;;;14.83;8.77;;;;;;;;;;5075637;28;20099;-38
2024/02/17 14:02:11;;;;;;;15.90;9.10;;;;;;;;;;5075827;28;20259;-38
2024/02/17 14:04:36;;;;;;;18.90;7.95;;;;;;;;;;5075692;28;20040;-38
2024/02/17 14:07:01;;;;;;;14.57;8.23;;;;;;;;;;5075436;28;20511;-39
2024/02/17 14:09:27;;;;;;;16.00;8.33;;;;;;;;;;5074116;28;20286;-39
2024/02/17 14:11:52;;;;;;;15.57;8.03;;;;;;;;;;5075650;28;20259;-38
2024/02/17 14:14:17;;;;;;;14.73;8.05;;;;;;;;;;5075345;28;20027;-38
2024/02/17 14:16:43;;;;;;;17.10;8.35;;;;;;;;;;5075458;28;20044;-39
2024/02/17 14:19:08;;;;;;;17.13;8.13;;;;;;;;;;5075362;28;20560;-39
2024/02/17 14:21:33;;;;;;;15.70;8.57;;;;;;;;;;5075635;28;20263;-39
2024/02/17 14:23:59;;;;;;;15.57;8.38;;;;;;;;;;5075585;28;20282;-38